Time;durP1;ratioP1;P1;durP2;ratioP2;P2;SDS_P1;SDS_P2;PMS_P1;PMS_P2;Temp;Humidity;BMP_temperature;BMP_pressure;BME280_temperature;BME280_humidity;BME280_pressure;Samples;Min_cycle;Max_cycle;Signal;HPM_P1;HPM_P2
2022/06/08 00:00:22;;;;;;;1.20;1.10;;;;;;;18.17;70.44;98533.28;5089897;28;38785;-77
2022/06/08 00:02:56;;;;;;;1.83;1.10;;;;;;;18.17;70.98;98539.47;5090198;28;41599;-76
2022/06/08 00:05:24;;;;;;;1.13;0.90;;;;;;;18.15;70.94;98541.47;5075961;28;41707;-77
2022/06/08 00:07:51;;;;;;;1.73;1.00;;;;;;;18.05;71.41;98526.44;5093449;28;42214;-77
2022/06/08 00:10:20;;;;;;;1.00;1.00;;;;;;;18.13;71.34;98539.91;5076343;28;40465;-78
2022/06/08 00:12:48;;;;;;;0.80;0.80;;;;;;;18.13;71.78;98548.81;5094758;28;42668;-77
2022/06/08 00:15:18;;;;;;;1.33;1.17;;;;;;;18.12;72.00;98535.56;5092992;28;43150;-77
2022/06/08 00:17:46;;;;;;;0.80;0.80;;;;;;;18.11;71.81;98537.38;5076143;28;42832;-78
2022/06/08 00:20:14;;;;;;;1.33;0.90;;;;;;;18.12;71.33;98538.22;5076406;28;40012;-75
2022/06/08 00:22:43;;;;;;;1.10;1.10;;;;;;;18.11;71.80;98540.06;5093432;28;41711;-77
2022/06/08 00:25:12;;;;;;;1.10;1.03;;;;;;;18.11;71.72;98541.91;5075956;28;41637;-78
2022/06/08 00:27:40;;;;;;;1.30;1.20;;;;;;;18.07;71.72;98527.94;5092929;28;42216;-78
2022/06/08 00:30:10;;;;;;;1.57;1.00;;;;;;;18.11;71.32;98529.34;5092858;28;39984;-78
2022/06/08 00:32:41;;;;;;;1.33;0.90;;;;;;;18.11;71.65;98524.00;5075947;28;40814;-78
2022/06/08 00:35:10;;;;;;;1.20;1.10;;;;;;;18.13;71.16;98527.38;5075949;28;42446;-78
2022/06/08 00:37:38;;;;;;;1.60;0.97;;;;;;;18.15;71.25;98530.75;5075712;28;42380;-78
2022/06/08 00:40:09;;;;;;;0.90;0.90;;;;;;;18.16;70.83;98527.06;5092543;28;40026;-80
2022/06/08 00:42:37;;;;;;;1.80;1.00;;;;;;;18.18;71.13;98525.06;5094075;28;41345;-77
2022/06/08 00:45:09;;;;;;;1.17;1.00;;;;;;;18.21;71.58;98521.22;5075769;28;41958;-79
2022/06/08 00:47:43;;;;;;;0.90;0.90;;;;;;;18.22;71.82;98521.09;5089672;28;42247;-80
2022/06/08 00:50:15;;;;;;;1.17;1.10;;;;;;;18.23;71.40;98525.44;5092949;28;40893;-76
2022/06/08 00:52:44;;;;;;;3.37;1.10;;;;;;;18.12;71.24;98504.22;5090929;28;42240;-77
2022/06/08 00:55:15;;;;;;;1.30;1.10;;;;;;;18.22;71.31;98518.41;5075548;28;41761;-77
2022/06/08 00:57:46;;;;;;;1.13;1.10;;;;;;;18.23;70.94;98522.78;5092451;28;42595;-75
2022/06/08 01:00:17;;;;;;;2.53;0.70;;;;;;;18.18;71.13;98498.25;5091816;28;40701;-75
2022/06/08 01:02:47;;;;;;;0.97;0.97;;;;;;;18.20;70.99;98504.31;5089351;28;41769;-76
2022/06/08 01:05:23;;;;;;;1.60;1.30;;;;;;;18.17;71.08;98509.16;5091807;28;43611;-77
2022/06/08 01:07:56;;;;;;;1.10;0.90;;;;;;;18.13;70.82;98513.13;5089621;28;42235;-78
2022/06/08 01:10:28;;;;;;;1.93;1.17;;;;;;;18.12;71.50;98503.38;5092363;28;40098;-75
2022/06/08 01:13:01;;;;;;;1.53;1.00;;;;;;;18.13;71.18;98505.09;5075616;28;41894;-77
2022/06/08 01:15:29;;;;;;;1.30;1.20;;;;;;;18.14;71.27;98502.25;5075477;28;41711;-75
2022/06/08 01:18:00;;;;;;;2.17;1.23;;;;;;;18.15;71.42;98498.56;5075122;28;41157;-77
2022/06/08 01:20:29;;;;;;;1.73;1.00;;;;;;;18.07;71.47;98479.72;5075316;28;41470;-77
2022/06/08 01:22:58;;;;;;;1.10;1.00;;;;;;;18.15;71.22;98493.22;5075464;28;40579;-79
2022/06/08 01:25:32;;;;;;;5.60;1.20;;;;;;;17.99;71.20;98468.94;5076226;28;41787;-79
2022/06/08 01:28:11;;;;;;;3.33;1.20;;;;;;;18.11;71.61;98486.47;5077378;28;41463;-76
2022/06/08 01:30:49;;;;;;;1.10;1.00;;;;;;;18.06;71.50;98483.38;5077046;28;39033;-76
2022/06/08 01:33:46;;;;;;;1.60;1.30;;;;;;;17.99;71.90;98482.31;5076525;28;40971;-76
2022/06/08 01:36:38;;;;;;;1.27;1.17;;;;;;;17.89;72.32;98486.91;5090823;28;44038;-78
2022/06/08 01:39:18;;;;;;;1.33;1.20;;;;;;;17.69;72.05;98461.22;5090095;28;42673;-79
2022/06/08 01:42:11;;;;;;;2.37;1.30;;;;;;;17.74;73.13;98477.69;5075245;28;39706;-78
2022/06/08 01:47:48;;;;;;;1.10;1.00;;;;;;;17.58;73.58;98463.09;5091819;28;42421;-79
2022/06/08 01:50:25;;;;;;;1.67;1.33;;;;;;;17.51;74.05;98462.00;5074740;28;42219;-78
2022/06/08 01:53:04;;;;;;;1.30;1.20;;;;;;;17.45;73.99;98453.72;5074869;28;40130;-76
2022/06/08 01:55:44;;;;;;;1.17;1.10;;;;;;;17.39;73.78;98457.00;5091269;28;41814;-76
2022/06/08 01:58:20;;;;;;;0.90;0.90;;;;;;;17.35;74.28;98448.41;5074872;28;41704;-78
2022/06/08 02:00:54;;;;;;;1.20;1.10;;;;;;;17.31;74.07;98447.00;5091579;28;42086;-75
2022/06/08 02:03:30;;;;;;;2.53;1.30;;;;;;;17.16;74.37;98429.78;5088348;28;39929;-77
2022/06/08 02:06:02;;;;;;;1.20;1.20;;;;;;;17.22;74.42;98445.22;5091538;28;40860;-76
2022/06/08 02:08:39;;;;;;;1.60;1.23;;;;;;;17.17;73.94;98443.03;5074484;28;42633;-78
2022/06/08 02:11:15;;;;;;;1.27;1.10;;;;;;;17.14;74.31;98437.09;5088553;28;43228;-78
2022/06/08 02:13:46;;;;;;;2.17;1.30;;;;;;;17.08;74.51;98437.69;5088360;28;40420;-76
2022/06/08 02:16:21;;;;;;;1.30;1.20;;;;;;;17.04;74.18;98441.66;5074261;28;40964;-77
2022/06/08 02:18:57;;;;;;;1.27;1.17;;;;;;;17.01;74.37;98436.59;5088297;28;43001;-79
2022/06/08 02:21:31;;;;;;;1.73;1.53;;;;;;;16.87;74.27;98417.34;5074431;28;41348;-75
2022/06/08 02:24:07;;;;;;;1.70;1.47;;;;;;;16.94;75.13;98427.47;5074126;28;38986;-79
2022/06/08 02:26:41;;;;;;;2.63;1.53;;;;;;;16.90;75.40;98424.25;5087657;28;42838;-78
2022/06/08 02:29:14;;;;;;;1.23;1.10;;;;;;;16.78;75.58;98415.56;5074106;28;41766;-74
2022/06/08 02:31:48;;;;;;;2.93;1.50;;;;;;;16.78;75.77;98412.88;5091277;28;41057;-77
2022/06/08 02:34:31;;;;;;;1.70;1.30;;;;;;;16.80;76.16;98421.63;5073989;28;38681;-77
2022/06/08 02:37:09;;;;;;;1.80;1.50;;;;;;;16.77;76.12;98424.56;5088145;28;42964;-79
2022/06/08 02:39:42;;;;;;;2.50;1.50;;;;;;;16.75;76.01;98420.34;5088439;28;43855;-77
2022/06/08 02:42:19;;;;;;;1.20;1.07;;;;;;;16.73;76.33;98431.19;5074040;28;41209;-76
2022/06/08 02:44:52;;;;;;;1.30;1.10;;;;;;;16.61;75.90;98418.94;5073719;28;38831;-77
2022/06/08 02:47:29;;;;;;;1.30;1.20;;;;;;;16.68;76.26;98441.50;5073769;28;40876;-76
2022/06/08 02:50:01;;;;;;;3.07;1.70;;;;;;;16.65;76.41;98425.72;5089560;28;42562;-80
2022/06/08 02:52:30;;;;;;;1.50;1.40;;;;;;;16.61;76.26;98423.44;5073815;28;41231;-75
2022/06/08 02:55:00;;;;;;;2.27;1.23;;;;;;;16.49;75.79;98414.75;5074255;28;39057;-77
2022/06/08 02:57:43;;;;;;;1.60;1.37;;;;;;;16.55;75.62;98430.22;5073708;28;43550;-78
2022/06/08 03:00:16;;;;;;;1.93;1.67;;;;;;;16.52;75.47;98431.34;5073383;28;43215;-76
2022/06/08 03:02:48;;;;;;;1.60;1.50;;;;;;;16.52;75.67;98430.50;5091067;28;41862;-75
2022/06/08 03:05:22;;;;;;;1.50;1.17;;;;;;;16.49;75.56;98425.44;5089901;28;40010;-76
2022/06/08 03:07:56;;;;;;;1.47;1.10;;;;;;;16.50;75.13;98427.97;5087783;28;42918;-78
2022/06/08 03:10:26;;;;;;;1.77;1.23;;;;;;;16.41;75.54;98415.47;5089980;28;43511;-76
2022/06/08 03:13:03;;;;;;;1.60;1.50;;;;;;;16.45;76.22;98419.53;5073741;28;41051;-77
2022/06/08 03:15:33;;;;;;;1.70;1.30;;;;;;;16.42;75.78;98414.50;5073557;28;40052;-75
2022/06/08 03:18:03;;;;;;;2.27;1.73;;;;;;;16.28;75.83;98400.72;5087479;28;42800;-75
2022/06/08 03:20:31;;;;;;;2.63;1.27;;;;;;;16.36;75.63;98416.88;5090411;28;42794;-76
2022/06/08 03:22:59;;;;;;;1.53;1.43;;;;;;;16.35;75.29;98420.53;5073417;28;41150;-75
2022/06/08 03:25:33;;;;;;;1.90;1.70;;;;;;;16.34;75.50;98418.84;5090145;28;39670;-79
2022/06/08 03:28:04;;;;;;;1.47;1.30;;;;;;;16.32;75.85;98418.16;5073405;28;42006;-75
2022/06/08 03:30:32;;;;;;;2.30;1.43;;;;;;;16.34;75.40;98416.16;5073237;28;41982;-77
2022/06/08 03:33:02;;;;;;;2.37;1.40;;;;;;;16.35;75.83;98417.88;5090323;28;42197;-78
2022/06/08 03:35:31;;;;;;;1.40;1.30;;;;;;;16.37;75.78;98411.41;5073076;28;38994;-76
2022/06/08 03:38:00;;;;;;;2.00;1.37;;;;;;;16.36;75.61;98407.03;5090264;28;41957;-76
2022/06/08 03:40:30;;;;;;;1.40;1.27;;;;;;;16.47;75.49;98419.38;5075673;28;41532;-77
2022/06/08 03:42:57;;;;;;;1.70;1.57;;;;;;;16.52;75.78;98419.81;5093821;28;43348;-76
2022/06/08 03:45:29;;;;;;;1.20;1.10;;;;;;;16.55;75.48;98414.19;5093827;28;39696;-78
2022/06/08 03:47:57;;;;;;;1.60;1.50;;;;;;;16.58;75.47;98413.88;5090705;28;41652;-80
2022/06/08 03:50:29;;;;;;;1.87;1.47;;;;;;;16.59;75.73;98422.75;5093691;28;42702;-76
2022/06/08 03:53:01;;;;;;;1.50;1.27;;;;;;;16.61;75.40;98418.94;5076822;28;40668;-78
2022/06/08 03:55:31;;;;;;;1.43;1.30;;;;;;;16.56;75.46;98410.53;5076655;28;39048;-77
2022/06/08 03:58:01;;;;;;;1.20;1.10;;;;;;;16.63;75.26;98422.34;5076387;28;40717;-79
2022/06/08 04:00:36;;;;;;;1.33;1.23;;;;;;;16.66;74.63;98416.72;5076423;28;41682;-79
2022/06/08 04:03:10;;;;;;;2.20;1.07;;;;;;;16.65;74.85;98416.88;5076526;28;41329;-76
2022/06/08 04:05:39;;;;;;;1.50;1.33;;;;;;;16.68;74.82;98422.78;5076205;28;38186;-77
2022/06/08 04:08:12;;;;;;;1.20;1.10;;;;;;;16.73;74.41;98419.66;5076694;28;40710;-78
2022/06/08 04:10:47;;;;;;;1.33;1.03;;;;;;;16.76;74.34;98420.22;5093014;28;42791;-76
2022/06/08 04:13:15;;;;;;;0.90;0.90;;;;;;;16.81;73.96;98428.63;5076527;28;40907;-76
2022/06/08 04:15:46;;;;;;;1.30;1.20;;;;;;;16.87;74.20;98425.38;5093094;28;40961;-79
2022/06/08 04:18:25;;;;;;;1.57;1.17;;;;;;;16.99;73.76;98422.53;5076310;28;41137;-80
2022/06/08 04:21:00;;;;;;;1.50;1.20;;;;;;;17.10;73.37;98420.50;5093101;28;41814;-77
2022/06/08 04:23:37;;;;;;;1.80;1.00;;;;;;;17.15;73.15;98412.88;5075810;28;41569;-77
2022/06/08 04:26:06;;;;;;;1.20;1.10;;;;;;;17.36;72.66;98423.34;5076208;28;39210;-77
2022/06/08 04:28:34;;;;;;;2.37;1.17;;;;;;;17.30;72.28;98399.00;5093033;28;41941;-77
2022/06/08 04:31:09;;;;;;;1.30;1.20;;;;;;;17.51;72.46;98429.03;5075746;28;43162;-76
2022/06/08 04:33:41;;;;;;;1.57;1.47;;;;;;;17.56;72.05;98432.94;5090000;28;43655;-75
2022/06/08 04:36:10;;;;;;;1.10;1.00;;;;;;;17.67;71.60;98429.25;5093278;28;38291;-79
2022/06/08 04:38:39;;;;;;;1.00;1.00;;;;;;;17.70;71.29;98417.38;5075685;28;40543;-75
2022/06/08 04:41:08;;;;;;;1.40;1.30;;;;;;;17.76;71.22;98425.66;5076027;28;43164;-79
2022/06/08 04:43:37;;;;;;;1.90;1.50;;;;;;;17.73;71.09;98422.44;5075599;28;40855;-76
2022/06/08 04:46:05;;;;;;;1.93;1.13;;;;;;;17.73;71.28;98417.94;5076218;28;39966;-76
2022/06/08 04:48:35;;;;;;;1.43;1.33;;;;;;;17.77;70.72;98421.16;5075721;28;40737;-76
2022/06/08 04:51:04;;;;;;;1.33;1.23;;;;;;;17.83;70.80;98429.41;5075277;28;42792;-76
2022/06/08 04:53:33;;;;;;;1.53;1.10;;;;;;;17.95;70.56;98425.50;5092847;28;41671;-78
2022/06/08 04:56:01;;;;;;;1.83;1.20;;;;;;;18.10;70.15;98433.00;5075719;28;39765;-78
2022/06/08 04:58:29;;;;;;;3.33;1.37;;;;;;;18.28;69.73;98421.31;5093638;28;42984;-77
2022/06/08 05:00:57;;;;;;;1.37;1.23;;;;;;;18.46;69.72;98425.78;5075565;28;41735;-79
2022/06/08 05:03:26;;;;;;;1.87;1.07;;;;;;;18.58;69.21;98414.69;5092665;28;43249;-77
2022/06/08 05:05:56;;;;;;;1.57;1.47;;;;;;;18.77;68.35;98415.47;5075976;28;38956;-76
2022/06/08 05:08:30;;;;;;;1.50;1.40;;;;;;;18.80;67.61;98402.56;5075731;28;40376;-77
2022/06/08 05:10:58;;;;;;;1.67;1.23;;;;;;;19.00;67.46;98412.09;5092253;28;43807;-78
2022/06/08 05:13:28;;;;;;;2.80;1.17;;;;;;;19.15;66.96;98408.81;5075547;28;41161;-74
2022/06/08 05:16:02;;;;;;;1.83;1.50;;;;;;;19.29;66.32;98408.19;5075605;28;40678;-80
2022/06/08 05:18:32;;;;;;;2.40;1.00;;;;;;;19.43;65.97;98421.00;5092378;28;40716;-77
2022/06/08 05:21:05;;;;;;;1.27;1.17;;;;;;;19.58;65.48;98430.16;5075556;28;41910;-76
2022/06/08 05:23:37;;;;;;;2.30;1.50;;;;;;;19.75;65.12;98433.75;5089229;28;42353;-76
2022/06/08 05:26:12;;;;;;;2.30;1.10;;;;;;;19.90;64.54;98436.63;5075556;28;38394;-77
2022/06/08 05:28:43;;;;;;;1.23;1.10;;;;;;;19.95;64.54;98431.59;5092364;28;42738;-78
2022/06/08 05:31:13;;;;;;;1.40;1.30;;;;;;;20.03;64.27;98424.38;5075028;28;42776;-76
2022/06/08 05:33:44;;;;;;;1.10;1.00;;;;;;;20.12;63.83;98429.78;5075057;28;41208;-80
2022/06/08 05:36:20;;;;;;;1.17;1.10;;;;;;;20.22;63.44;98433.97;5075089;28;39142;-75
2022/06/08 05:38:51;;;;;;;1.23;1.00;;;;;;;20.34;63.34;98429.94;5074403;28;40353;-78
2022/06/08 05:41:22;;;;;;;1.90;1.27;;;;;;;20.48;62.79;98425.78;5089120;28;43018;-75
2022/06/08 05:43:50;;;;;;;1.27;1.17;;;;;;;20.57;62.09;98432.00;5091796;28;42005;-78
2022/06/08 05:46:18;;;;;;;1.07;1.00;;;;;;;20.64;62.15;98427.63;5075030;28;41358;-76
2022/06/08 05:48:49;;;;;;;1.20;1.10;;;;;;;20.66;61.70;98420.19;5074973;28;40779;-78
2022/06/08 05:51:17;;;;;;;2.53;1.20;;;;;;;20.72;61.19;98424.91;5072928;28;41746;-78
2022/06/08 05:53:46;;;;;;;1.40;1.10;;;;;;;20.78;61.45;98424.22;5067004;28;41464;-80
2022/06/08 05:56:14;;;;;;;1.03;0.97;;;;;;;20.82;61.26;98420.19;5074386;28;39928;-76
2022/06/08 05:58:46;;;;;;;1.50;1.40;;;;;;;20.86;61.10;98421.53;5070577;28;40933;-80
2022/06/08 06:01:14;;;;;;;1.10;1.00;;;;;;;20.86;60.67;98410.75;5053937;28;42842;-81
2022/06/08 06:03:43;;;;;;;3.07;1.37;;;;;;;20.84;60.86;98412.78;5082458;28;42176;-83
2022/06/08 06:06:11;;;;;;;1.80;1.23;;;;;;;20.91;60.16;98416.47;5070891;28;38762;-81
2022/06/08 06:08:41;;;;;;;1.63;1.20;;;;;;;21.01;60.64;98429.75;5073209;28;41752;-80
2022/06/08 06:11:19;;;;;;;2.07;1.30;;;;;;;21.13;60.20;98418.44;5084916;28;43361;-81
2022/06/08 06:13:59;;;;;;;1.67;1.20;;;;;;;21.24;59.49;98414.56;5086806;28;43098;-82
2022/06/08 06:16:27;;;;;;;1.00;1.00;;;;;;;21.47;58.45;98425.41;5088848;28;39879;-78
2022/06/08 06:18:58;;;;;;;0.73;0.73;;;;;;;21.79;58.77;98417.13;5086846;28;41798;-81
2022/06/08 06:21:42;;;;;;;2.27;1.00;;;;;;;22.17;57.65;98422.66;5069070;28;42300;-80
2022/06/08 06:24:28;;;;;;;1.30;0.83;;;;;;;22.45;56.71;98414.84;5088693;28;42298;-80
2022/06/08 06:27:07;;;;;;;0.80;0.80;;;;;;;22.72;55.01;98426.94;5089079;28;39114;-78
2022/06/08 06:29:54;;;;;;;1.33;1.13;;;;;;;22.89;54.18;98429.28;5087959;28;40609;-79
2022/06/08 06:32:34;;;;;;;2.40;1.17;;;;;;;23.18;53.31;98427.66;5071326;28;43333;-79
2022/06/08 06:35:08;;;;;;;1.33;1.10;;;;;;;23.35;53.67;98422.91;5071577;28;41498;-80
2022/06/08 06:37:37;;;;;;;1.23;0.73;;;;;;;23.47;53.59;98421.41;5085045;28;40723;-82
2022/06/08 06:40:09;;;;;;;1.00;0.90;;;;;;;23.38;52.58;98427.91;5088672;28;42506;-83
2022/06/08 06:42:38;;;;;;;1.90;1.10;;;;;;;23.25;53.29;98424.00;5088586;28;42404;-79
2022/06/08 06:45:35;;;;;;;1.07;0.90;;;;;;;23.14;52.72;98402.84;5069248;28;42193;-86
2022/06/08 06:48:08;;;;;;;1.83;1.00;;;;;;;23.36;53.05;98419.19;5089432;28;41145;-82
2022/06/08 06:50:37;;;;;;;0.70;0.70;;;;;;;23.62;52.72;98419.53;5071381;28;41601;-83
2022/06/08 06:53:06;;;;;;;1.27;0.90;;;;;;;23.82;52.43;98417.91;5072173;28;42811;-83
2022/06/08 06:55:35;;;;;;;1.27;0.97;;;;;;;23.98;52.42;98408.72;5071732;28;43764;-85
2022/06/08 06:58:14;;;;;;;1.10;0.90;;;;;;;23.88;51.26;98403.59;5072128;28;39444;-88
2022/06/08 07:00:42;;;;;;;0.87;0.73;;;;;;;24.18;49.95;98420.59;5071820;28;41104;-81
2022/06/08 07:03:13;;;;;;;1.00;0.80;;;;;;;24.29;49.87;98421.97;5086537;28;42622;-84
2022/06/08 07:05:44;;;;;;;1.27;0.83;;;;;;;24.32;49.23;98419.72;5089026;28;42913;-81
2022/06/08 07:08:12;;;;;;;0.93;0.60;;;;;;;24.64;49.18;98423.75;5072428;28;40278;-80
2022/06/08 07:10:43;;;;;;;1.27;0.80;;;;;;;25.12;48.22;98426.59;5088838;28;42316;-82
2022/06/08 07:13:13;;;;;;;1.03;0.90;;;;;;;25.34;47.33;98432.81;5073452;28;42748;-78
2022/06/08 07:15:43;;;;;;;1.23;0.90;;;;;;;25.47;47.18;98423.91;5092308;28;43106;-85
2022/06/08 07:18:12;;;;;;;2.70;0.90;;;;;;;25.81;47.23;98429.31;5075631;28;41005;-78
2022/06/08 07:20:40;;;;;;;1.07;0.90;;;;;;;26.13;46.10;98436.69;5091539;28;42533;-82
2022/06/08 07:23:08;;;;;;;0.67;0.67;;;;;;;26.41;45.32;98435.72;5075620;28;41697;-83
2022/06/08 07:25:36;;;;;;;3.27;0.90;;;;;;;26.43;44.63;98439.91;5091322;28;43290;-79
2022/06/08 07:28:04;;;;;;;2.80;1.17;;;;;;;26.27;44.80;98431.28;5092400;28;40855;-83
2022/06/08 07:30:32;;;;;;;3.17;0.90;;;;;;;26.38;44.71;98430.72;5093459;28;42861;-77
2022/06/08 07:33:01;;;;;;;1.10;0.87;;;;;;;27.58;42.85;98437.75;5088821;28;43667;-84
2022/06/08 07:35:28;;;;;;;0.63;0.63;;;;;;;29.12;40.82;98446.44;5091835;28;42089;-80
2022/06/08 07:37:56;;;;;;;1.03;0.70;;;;;;;30.58;39.00;98457.31;5092922;28;38547;-80
2022/06/08 07:40:24;;;;;;;3.37;0.80;;;;;;;31.80;36.65;98466.53;5091961;28;42194;-77
2022/06/08 07:42:52;;;;;;;1.50;0.83;;;;;;;32.79;34.35;98464.38;5075300;28;42532;-83
2022/06/08 07:45:20;;;;;;;0.97;0.70;;;;;;;33.51;32.71;98483.63;5092210;28;42226;-81
2022/06/08 07:50:34;;;;;;;1.60;0.90;;;;;;;33.28;32.69;98470.94;5090870;28;40792;-79
2022/06/08 07:53:02;;;;;;;1.47;0.87;;;;;;;33.00;32.94;98463.66;5093599;28;42710;-80
2022/06/08 07:55:30;;;;;;;0.80;0.80;;;;;;;32.72;33.40;98450.00;5074009;28;41073;-81
2022/06/08 07:57:58;;;;;;;2.53;1.13;;;;;;;33.00;33.04;98438.13;5074821;28;39029;-78
2022/06/08 08:00:28;;;;;;;1.00;1.00;;;;;;;33.56;32.22;98459.00;5091771;28;42084;-83
2022/06/08 08:02:56;;;;;;;2.17;1.00;;;;;;;34.73;30.14;98468.66;5092162;28;42191;-80
2022/06/08 08:05:24;;;;;;;2.07;0.80;;;;;;;36.10;27.73;98477.91;5092979;28;43248;-80
2022/06/08 08:07:55;;;;;;;1.95;1.08;;;;;;;37.48;26.27;98476.97;5099689;28;39744;-80
2022/06/08 08:10:27;;;;;;;1.13;0.70;;;;;;;38.89;25.37;98483.00;5095434;28;42695;-81
2022/06/08 08:12:55;;;;;;;1.00;0.70;;;;;;;38.86;24.45;98484.41;5088646;28;42771;-81
2022/06/08 08:15:24;;;;;;;1.10;0.80;;;;;;;37.83;25.69;98463.09;5073473;28;42627;-81
2022/06/08 08:17:52;;;;;;;1.40;0.77;;;;;;;37.76;24.22;98473.63;5074963;28;41552;-80
2022/06/08 08:20:22;;;;;;;1.52;0.90;;;;;;;39.08;23.15;98483.97;5090811;28;41071;-84
2022/06/08 08:22:50;;;;;;;1.33;1.00;;;;;;;39.75;22.42;98477.53;5092170;28;42494;-81
2022/06/08 08:25:20;;;;;;;1.23;0.80;;;;;;;38.11;24.69;98461.63;5091469;28;42296;-83
2022/06/08 08:27:47;;;;;;;1.23;0.73;;;;;;;36.25;26.38;98445.69;5071204;28;39021;-83
2022/06/08 08:30:17;;;;;;;1.67;1.00;;;;;;;34.72;28.20;98425.75;5093240;28;42432;-82
2022/06/08 08:32:45;;;;;;;0.73;0.73;;;;;;;33.21;29.55;98400.81;5093176;28;43450;-81
2022/06/08 08:35:14;;;;;;;1.10;0.80;;;;;;;32.28;30.65;98414.09;5073491;28;40665;-77
2022/06/08 08:37:42;;;;;;;1.63;0.53;;;;;;;31.40;30.94;98400.78;5074955;28;38987;-79
2022/06/08 08:40:35;;;;;;;0.87;0.60;;;;;;;30.67;31.99;98385.66;5074111;28;40990;-80
2022/06/08 08:43:03;;;;;;;3.03;1.13;;;;;;;30.23;32.78;98367.84;5092137;28;42359;-83
2022/06/08 08:45:35;;;;;;;0.80;0.80;;;;;;;31.77;31.82;98369.25;5091063;28;42734;-81
2022/06/08 08:48:06;;;;;;;2.03;0.80;;;;;;;32.74;29.45;98396.56;5090469;28;38982;-80
2022/06/08 08:50:39;;;;;;;1.63;0.90;;;;;;;34.00;27.90;98417.84;5090896;28;42846;-79
2022/06/08 08:53:18;;;;;;;1.20;0.63;;;;;;;35.23;27.07;98408.53;5088766;28;42545;-81
2022/06/08 08:55:50;;;;;;;0.93;0.70;;;;;;;35.57;26.36;98416.47;5073135;28;42395;-78
2022/06/08 08:58:21;;;;;;;1.23;0.70;;;;;;;35.70;26.05;98415.13;5089182;28;40685;-81
2022/06/08 09:00:51;;;;;;;0.80;0.80;;;;;;;36.64;25.05;98415.69;5090897;28;41754;-83
2022/06/08 09:03:25;;;;;;;1.70;0.67;;;;;;;37.05;24.44;98421.22;5074030;28;42765;-80
2022/06/08 09:05:58;;;;;;;0.97;0.60;;;;;;;36.72;24.87;98414.38;5074199;28;42624;-84
2022/06/08 09:08:26;;;;;;;0.70;0.60;;;;;;;36.15;25.34;98417.25;5091399;28;38999;-79
2022/06/08 09:11:00;;;;;;;1.80;0.80;;;;;;;35.16;26.34;98404.34;5090241;28;41914;-84
2022/06/08 09:13:37;;;;;;;1.90;0.70;;;;;;;34.94;26.71;98390.72;5088621;28;43568;-81
2022/06/08 09:16:06;;;;;;;1.07;0.90;;;;;;;36.74;25.01;98405.78;5087143;28;41192;-81
2022/06/08 09:18:36;;;;;;;0.73;0.73;;;;;;;38.49;23.33;98415.72;5090666;28;40587;-79
2022/06/08 09:21:31;;;;;;;0.63;0.63;;;;;;;39.76;21.96;98406.25;5074041;28;40971;-80
2022/06/08 09:24:03;;;;;;;1.90;0.80;;;;;;;39.80;21.07;98413.69;5073309;28;41913;-83
2022/06/08 09:26:36;;;;;;;0.83;0.83;;;;;;;39.56;21.55;98406.53;5072861;28;41051;-81
2022/06/08 09:29:14;;;;;;;0.97;0.97;;;;;;;39.05;21.82;98402.31;5089005;28;39938;-80
2022/06/08 09:31:43;;;;;;;0.60;0.60;;;;;;;39.11;21.83;98392.81;5069907;28;40996;-82
2022/06/08 09:34:20;;;;;;;1.30;0.80;;;;;;;39.45;21.82;98384.44;5073405;28;42987;-82
2022/06/08 09:37:07;;;;;;;0.90;0.70;;;;;;;39.95;20.37;98393.25;5070846;28;42759;-81
2022/06/08 09:39:36;;;;;;;2.45;2.10;;;;;;;40.49;19.73;98401.09;5088493;28;39811;-82
2022/06/08 09:42:19;;;;;;;0.77;0.77;;;;;;;41.28;19.64;98392.84;5072321;28;43009;-81
2022/06/08 09:44:58;;;;;;;1.00;0.70;;;;;;;42.03;18.62;98381.34;5070459;28;41754;-80
2022/06/08 09:53:33;;;;;;;1.30;0.68;;;;;;;43.09;16.87;98402.16;5084850;28;42562;-80
2022/06/08 09:56:13;;;;;;;1.13;0.50;;;;;;;41.65;17.69;98391.03;5070810;28;42818;-80
2022/06/08 09:59:02;;;;;;;0.70;0.70;;;;;;;40.39;19.38;98369.91;5088447;28;42948;-81
2022/06/08 10:01:36;;;;;;;0.95;0.60;;;;;;;39.00;20.27;98371.06;5084560;28;39936;-80
2022/06/08 10:04:21;;;;;;;0.73;0.60;;;;;;;37.52;21.42;98353.75;5072541;28;40805;-79
2022/06/08 10:06:58;;;;;;;1.17;0.80;;;;;;;36.38;22.89;98352.50;5073373;28;41403;-82
2022/06/08 10:09:35;;;;;;;0.83;0.60;;;;;;;35.61;23.83;98348.69;5068880;28;41257;-81
2022/06/08 10:12:12;;;;;;;0.60;0.60;;;;;;;35.52;24.67;98333.78;5073184;28;41131;-82
2022/06/08 10:14:49;;;;;;;1.50;0.80;;;;;;;36.39;24.62;98326.56;5073616;28;42152;-81
2022/06/08 10:17:22;;;;;;;0.80;0.50;;;;;;;36.37;23.35;98326.84;5089710;28;42948;-80
2022/06/08 10:20:02;;;;;;;1.40;0.60;;;;;;;35.23;24.27;98319.59;5088512;28;42746;-78
2022/06/08 10:22:35;;;;;;;1.07;0.70;;;;;;;34.23;25.88;98304.84;5072929;28;38911;-82
2022/06/08 10:25:08;;;;;;;0.80;0.60;;;;;;;33.38;26.01;98305.56;5089538;28;42356;-79
2022/06/08 10:27:40;;;;;;;0.93;0.73;;;;;;;32.81;26.92;98297.63;5088690;28;43669;-77
2022/06/08 10:30:17;;;;;;;0.83;0.70;;;;;;;32.60;26.94;98301.13;5090538;28;41816;-78
2022/06/08 10:32:51;;;;;;;0.53;0.50;;;;;;;32.55;27.75;98279.13;5057646;28;39823;-78
2022/06/08 10:35:27;;;;;;;0.80;0.60;;;;;;;32.02;27.96;98269.50;5089442;28;42769;-80
2022/06/08 10:37:56;;;;;;;0.97;0.80;;;;;;;31.68;28.49;98274.88;5088680;28;42485;-80
2022/06/08 10:40:28;;;;;;;0.87;0.70;;;;;;;31.55;30.74;98252.44;5072850;28;41297;-77
2022/06/08 10:42:57;;;;;;;0.77;0.57;;;;;;;32.21;30.14;98259.97;5090628;28;40192;-80
2022/06/08 10:45:37;;;;;;;0.60;0.43;;;;;;;32.28;30.04;98260.59;5073325;28;40720;-79
2022/06/08 10:48:41;;;;;;;1.27;0.80;;;;;;;32.10;30.59;98253.47;5090190;28;42040;-80
2022/06/08 10:51:37;;;;;;;1.60;0.73;;;;;;;31.89;30.44;98261.59;5060581;28;41078;-81
2022/06/08 10:57:39;;;;;;;1.30;0.70;;;;;;;31.64;30.83;98253.75;5061317;28;41603;-80
2022/06/08 11:00:25;;;;;;;2.63;0.70;;;;;;;31.72;31.48;98250.59;5071730;28;41933;-81
2022/06/08 11:03:01;;;;;;;0.70;0.70;;;;;;;32.05;30.69;98245.13;5059302;28;44148;-82
2022/06/08 11:05:33;;;;;;;0.60;0.60;;;;;;;31.93;31.47;98247.13;5089715;28;41525;-83
2022/06/08 11:08:22;;;;;;;1.63;0.73;;;;;;;31.62;30.68;98229.31;5073435;28;42433;-81
2022/06/08 11:10:55;;;;;;;2.17;0.90;;;;;;;31.65;31.34;98234.31;5058924;28;43217;-83
2022/06/08 11:13:30;;;;;;;1.43;0.67;;;;;;;31.60;30.30;98241.59;5090143;28;43832;-78
2022/06/08 11:16:08;;;;;;;3.13;0.70;;;;;;;31.55;29.78;98236.84;5073882;28;39088;-78
2022/06/08 11:18:42;;;;;;;1.00;0.77;;;;;;;31.76;29.98;98230.69;5073763;28;40428;-77
2022/06/08 11:21:36;;;;;;;0.57;0.57;;;;;;;31.96;30.25;98219.25;5090462;28;41695;-80
2022/06/08 11:24:14;;;;;;;2.37;0.80;;;;;;;32.63;30.76;98210.16;5073181;28;41052;-78
2022/06/08 11:27:14;;;;;;;0.80;0.70;;;;;;;33.00;29.61;98235.09;5057930;28;38847;-79
2022/06/08 11:29:48;;;;;;;2.03;0.50;;;;;;;32.99;30.07;98226.03;5072801;28;40914;-78
2022/06/08 11:32:46;;;;;;;0.77;0.60;;;;;;;32.77;28.93;98227.91;5090029;28;41964;-80
2022/06/08 11:35:47;;;;;;;0.60;0.50;;;;;;;32.51;27.48;98234.13;5071897;28;41240;-79
2022/06/08 11:38:21;;;;;;;0.60;0.60;;;;;;;32.40;27.55;98235.84;5072953;28;38997;-81
2022/06/08 11:40:49;;;;;;;0.50;0.50;;;;;;;31.86;29.19;98202.66;5078466;28;40922;-77
2022/06/08 11:43:37;;;;;;;0.90;0.50;;;;;;;31.56;28.78;98222.06;5094550;28;41937;-78
2022/06/08 11:46:05;;;;;;;0.77;0.60;;;;;;;31.16;28.97;98204.91;5094540;28;42427;-78
2022/06/08 11:48:47;;;;;;;1.40;0.60;;;;;;;30.93;31.12;98203.84;5097010;28;40348;-77
2022/06/08 11:51:31;;;;;;;1.17;0.67;;;;;;;30.60;32.15;98181.84;5079226;28;40545;-77
2022/06/08 11:54:03;;;;;;;0.40;0.40;;;;;;;30.41;30.79;98199.44;5096137;28;42795;-78
2022/06/08 11:56:38;;;;;;;1.30;0.67;;;;;;;30.19;31.39;98186.34;5075816;28;41831;-79
2022/06/08 11:59:16;;;;;;;0.97;0.53;;;;;;;30.00;31.88;98182.91;5087030;28;40622;-79
2022/06/08 12:01:52;;;;;;;0.67;0.57;;;;;;;29.77;32.51;98161.03;5075788;28;41982;-81
2022/06/08 12:04:23;;;;;;;1.10;0.70;;;;;;;29.78;31.73;98183.69;5090716;28;42680;-82
2022/06/08 12:06:56;;;;;;;1.40;0.60;;;;;;;29.97;32.18;98182.56;5090151;28;42214;-81
2022/06/08 12:09:28;;;;;;;1.40;0.70;;;;;;;30.08;30.79;98184.44;5090991;28;39908;-81
2022/06/08 12:12:13;;;;;;;0.70;0.67;;;;;;;30.14;31.60;98161.66;5093468;28;40683;-78
2022/06/08 12:14:42;;;;;;;2.30;0.73;;;;;;;30.27;31.92;98161.44;5109573;27;43689;-79
2022/06/08 12:17:33;;;;;;;0.60;0.60;;;;;;;31.13;31.51;98158.88;5092725;28;42334;-80